Time;durP1;ratioP1;P1;durP2;ratioP2;P2;SDS_P1;SDS_P2;PMS_P1;PMS_P2;Temp;Humidity;BMP_temperature;BMP_pressure;BME280_temperature;BME280_humidity;BME280_pressure;Samples;Min_cycle;Max_cycle;Signal;HPM_P1;HPM_P2
2022/09/26 00:04:27;;;;;;;3.55;2.03;;;;;;;8.54;100.00;100234.63;5052585;28;20393;-82
2022/09/26 00:06:57;;;;;;;3.05;1.50;;;;;;;8.59;100.00;100226.75;5044972;28;20048;-82
2022/09/26 00:09:27;;;;;;;3.72;1.90;;;;;;;8.64;100.00;100224.97;5029713;28;20972;-82
2022/09/26 00:11:54;;;;;;;2.38;1.48;;;;;;;8.72;100.00;100215.38;5047739;28;20049;-82
2022/09/26 00:14:27;;;;;;;2.50;1.30;;;;;;;8.82;100.00;100215.28;5025342;28;20045;-81
2022/09/26 00:16:57;;;;;;;2.80;0.90;;;;;;;8.88;100.00;100203.03;5028187;28;20041;-81
2022/09/26 00:19:24;;;;;;;8.13;2.50;;;;;;;8.93;100.00;100209.09;5040121;28;20060;-82
2022/09/26 00:21:52;;;;;;;1.30;1.20;;;;;;;8.97;100.00;100199.47;5051423;28;20040;-82
2022/09/26 00:24:19;;;;;;;3.58;1.63;;;;;;;8.99;100.00;100200.31;5050495;28;20047;-81
2022/09/26 00:26:46;;;;;;;1.35;1.20;;;;;;;9.01;100.00;100193.34;5041057;28;20090;-82
2022/09/26 00:29:14;;;;;;;1.63;1.20;;;;;;;9.04;100.00;100190.69;5046552;28;20045;-82
2022/09/26 00:31:46;;;;;;;2.33;1.08;;;;;;;9.05;100.00;100189.81;5051286;28;20049;-82
2022/09/26 00:34:16;;;;;;;4.05;1.50;;;;;;;9.06;100.00;100181.13;5051223;28;20048;-80
2022/09/26 00:36:46;;;;;;;3.63;1.38;;;;;;;9.08;100.00;100179.34;5053935;28;20072;-80
2022/09/26 00:39:15;;;;;;;2.97;1.58;;;;;;;9.04;100.00;100166.34;5049248;28;20037;-81
2022/09/26 00:41:42;;;;;;;2.33;1.52;;;;;;;9.05;100.00;100171.53;5031131;28;20037;-83
2022/09/26 00:44:53;;;;;;;2.95;1.17;;;;;;;9.02;100.00;100161.13;5034153;28;20534;-80
2022/09/26 00:47:37;;;;;;;4.50;1.80;;;;;;;9.01;100.00;100163.75;5049322;28;20053;-79
2022/09/26 00:50:09;;;;;;;;;;;;;;;9.01;100.00;100161.13;5069661;28;20672;-81
2022/09/26 00:52:56;;;;;;;4.28;1.55;;;;;;;9.03;100.00;100160.22;5054916;28;19928;-80
2022/09/26 00:55:31;;;;;;;3.72;1.50;;;;;;;9.09;100.00;100151.50;5044115;28;20049;-82
2022/09/26 00:58:14;;;;;;;1.08;1.02;;;;;;;9.15;100.00;100145.31;5024278;28;20140;-81
2022/09/26 01:00:43;;;;;;;1.42;1.05;;;;;;;9.18;100.00;100151.38;5053282;28;20377;-82
2022/09/26 01:03:10;;;;;;;1.90;1.10;;;;;;;9.18;100.00;100140.94;5053609;28;20069;-81
2022/09/26 01:05:38;;;;;;;1.77;1.67;;;;;;;9.19;100.00;100137.47;5020478;28;20191;-80
2022/09/26 01:08:06;;;;;;;1.02;0.60;;;;;;;9.20;100.00;100138.31;5035780;28;20143;-83
2022/09/26 01:10:37;;;;;;;4.65;1.50;;;;;;;9.18;100.00;100135.72;5054566;28;20051;-80
2022/09/26 01:13:05;;;;;;;2.15;1.33;;;;;;;9.20;100.00;100140.91;5024227;28;20069;-82
2022/09/26 01:15:33;;;;;;;1.52;1.17;;;;;;;9.23;100.00;100139.13;5033282;28;20049;-80
2022/09/26 01:18:00;;;;;;;0.82;0.80;;;;;;;9.24;100.00;100133.03;5053293;28;20091;-82
2022/09/26 01:21:07;;;;;;;1.58;1.20;;;;;;;9.24;100.00;100121.72;5039700;28;20048;-81
2022/09/26 01:24:15;;;;;;;1.42;1.02;;;;;;;9.22;100.00;100118.28;5028469;28;20037;-83
2022/09/26 01:27:34;;;;;;;1.85;1.10;;;;;;;9.20;100.00;100120.03;5068732;28;20489;-83
2022/09/26 01:30:14;;;;;;;3.53;1.75;;;;;;;9.18;100.00;100112.22;5066976;28;20055;-82
2022/09/26 01:33:01;;;;;;;4.43;1.30;;;;;;;9.17;100.00;100114.84;5051771;28;20044;-81
2022/09/26 01:36:16;;;;;;;1.02;1.02;;;;;;;9.12;100.00;100109.66;5034682;28;20120;-82
2022/09/26 01:38:59;;;;;;;;;;;;;;;9.03;100.00;100108.03;5051788;28;20037;-82
2022/09/26 01:41:59;;;;;;;1.30;0.73;;;;;;;8.94;100.00;100105.50;5055753;28;19929;-80
2022/09/26 01:45:09;;;;;;;4.15;0.82;;;;;;;8.91;100.00;100102.94;5053045;28;20045;-81
2022/09/26 01:48:12;;;;;;;3.40;1.02;;;;;;;8.85;100.00;100097.78;5022694;28;20080;-83
2022/09/26 01:50:50;;;;;;;3.40;1.10;;;;;;;8.76;100.00;100096.13;5071166;28;20036;-82
2022/09/26 01:53:25;;;;;;;2.00;1.10;;;;;;;8.73;100.00;100088.34;5057834;28;20041;-80
2022/09/26 01:56:02;;;;;;;0.68;0.68;;;;;;;8.70;100.00;100084.03;5059858;28;20417;-81
2022/09/26 01:58:39;;;;;;;1.33;0.95;;;;;;;8.69;100.00;100092.72;5056561;28;20037;-82
2022/09/26 02:01:19;;;;;;;3.50;1.08;;;;;;;8.72;100.00;100092.72;5039519;28;20091;-82
2022/09/26 02:03:55;;;;;;;4.03;1.75;;;;;;;8.78;100.00;100083.94;5045678;28;20725;-82
2022/09/26 02:06:32;;;;;;;1.60;1.10;;;;;;;8.83;100.00;100084.75;5041185;28;20492;-82
2022/09/26 02:09:08;;;;;;;1.90;1.15;;;;;;;8.84;100.00;100072.56;5042159;28;20063;-82
2022/09/26 02:11:42;;;;;;;2.05;1.30;;;;;;;8.87;100.00;100070.78;5061862;28;20115;-82
2022/09/26 02:14:27;;;;;;;2.70;1.52;;;;;;;8.89;100.00;100065.53;5061349;28;20068;-82
2022/09/26 02:17:01;;;;;;;3.83;1.13;;;;;;;8.86;100.00;100056.00;5059454;28;20049;-82
2022/09/26 02:19:33;;;;;;;1.67;1.35;;;;;;;8.87;100.00;100054.28;5061784;28;20376;-80
2022/09/26 02:22:01;;;;;;;1.98;1.55;;;;;;;8.86;100.00;100058.63;5040910;28;20041;-81
2022/09/26 02:24:29;;;;;;;4.80;1.95;;;;;;;8.84;100.00;100049.97;5066556;28;20041;-81
2022/09/26 02:26:55;;;;;;;4.05;1.15;;;;;;;8.85;100.00;100042.97;5036558;28;20036;-82
2022/09/26 02:29:22;;;;;;;1.58;1.20;;;;;;;8.85;100.00;100041.25;5034131;28;20049;-79
2022/09/26 02:31:57;;;;;;;1.83;1.13;;;;;;;8.84;100.00;100034.28;5048834;28;20053;-80
2022/09/26 02:34:25;;;;;;;2.80;2.42;;;;;;;8.83;100.00;100031.72;5033754;28;20117;-80
2022/09/26 02:36:54;;;;;;;1.80;1.10;;;;;;;8.84;100.00;100026.47;5044968;28;20526;-82
2022/09/26 02:39:23;;;;;;;1.95;0.90;;;;;;;8.82;100.00;100025.59;5031075;28;20054;-83
2022/09/26 02:42:22;;;;;;;3.53;1.30;;;;;;;8.80;100.00;100026.50;5047760;28;20483;-80
2022/09/26 02:45:21;;;;;;;1.92;1.38;;;;;;;8.75;100.00;100011.78;5046329;28;20110;-80
2022/09/26 02:48:16;;;;;;;1.30;1.08;;;;;;;8.75;100.00;100005.69;5046424;28;20432;-82
2022/09/26 02:51:26;;;;;;;4.22;1.17;;;;;;;8.74;100.00;100014.41;5024239;28;20048;-80
2022/09/26 02:54:22;;;;;;;4.25;1.38;;;;;;;8.71;100.00;99999.66;5022638;28;20057;-80
2022/09/26 02:57:13;;;;;;;3.30;1.23;;;;;;;8.74;100.00;99996.13;5029502;28;20041;-82
2022/09/26 03:00:10;;;;;;;1.48;1.23;;;;;;;8.80;100.00;99988.25;5043235;28;20132;-82
2022/09/26 03:02:55;;;;;;;4.22;0.95;;;;;;;8.83;100.00;99990.81;5046607;28;20051;-82
2022/09/26 03:05:26;;;;;;;1.15;1.00;;;;;;;8.83;100.00;99985.59;5057238;28;20484;-80
2022/09/26 03:08:16;;;;;;;5.95;1.60;;;;;;;8.90;100.00;99986.38;5024047;28;20049;-81
2022/09/26 03:10:46;;;;;;;1.50;1.17;;;;;;;8.91;100.00;99983.72;5056145;28;20419;-80
2022/09/26 03:13:16;;;;;;;1.23;1.13;;;;;;;9.00;100.00;99974.06;5046601;28;20052;-83
2022/09/26 03:15:52;;;;;;;1.20;1.05;;;;;;;9.05;100.00;99975.72;5045907;28;20057;-80
2022/09/26 03:18:35;;;;;;;4.75;1.55;;;;;;;9.14;100.00;99973.88;5044193;28;20402;-81
2022/09/26 03:21:04;;;;;;;3.33;1.10;;;;;;;9.19;100.00;99967.72;5039444;28;20607;-82
2022/09/26 03:23:30;;;;;;;1.40;1.30;;;;;;;9.25;100.00;99961.53;5026798;28;20564;-79
2022/09/26 03:26:13;;;;;;;1.88;1.52;;;;;;;9.30;100.00;99961.47;5022418;28;20484;-80
2022/09/26 03:28:58;;;;;;;4.95;1.15;;;;;;;9.30;100.00;99956.25;5036833;28;20034;-81
2022/09/26 03:31:25;;;;;;;2.55;1.30;;;;;;;9.31;100.00;99952.72;5027872;28;20153;-81
2022/09/26 03:33:52;;;;;;;3.10;1.10;;;;;;;9.34;100.00;99952.69;5026793;28;20048;-80
2022/09/26 03:36:27;;;;;;;1.00;1.00;;;;;;;9.37;100.00;99947.41;5042169;28;20052;-80
2022/09/26 03:38:54;;;;;;;1.33;1.20;;;;;;;9.38;100.00;99944.78;5030055;28;20160;-81
2022/09/26 03:41:23;;;;;;;6.82;1.48;;;;;;;9.39;100.00;99941.28;5047099;28;20052;-83
2022/09/26 03:43:50;;;;;;;4.53;1.70;;;;;;;9.43;100.00;99947.31;5052893;28;20049;-83
2022/09/26 03:46:23;;;;;;;2.17;1.98;;;;;;;9.45;100.00;99935.09;5067092;28;20041;-83
2022/09/26 03:49:00;;;;;;;1.83;1.35;;;;;;;9.44;100.00;99929.00;5072189;28;20041;-80
2022/09/26 03:51:27;;;;;;;1.35;1.30;;;;;;;9.45;100.00;99929.84;5065425;28;20110;-79
2022/09/26 03:53:54;;;;;;;2.92;1.92;;;;;;;9.45;100.00;99927.25;5048519;28;20695;-80
2022/09/26 03:56:22;;;;;;;5.18;1.52;;;;;;;9.45;100.00;99922.03;5029104;28;20518;-80
2022/09/26 03:58:49;;;;;;;4.38;2.05;;;;;;;9.44;100.00;99926.41;5040691;28;20072;-81
2022/09/26 04:01:19;;;;;;;4.40;1.70;;;;;;;9.42;100.00;99914.25;5048504;28;20393;-82
2022/09/26 04:03:48;;;;;;;5.75;1.67;;;;;;;9.41;100.00;99902.06;5031375;28;20049;-82
2022/09/26 04:06:18;;;;;;;2.45;1.90;;;;;;;9.41;100.00;99912.50;5079861;28;20025;-81
2022/09/26 04:08:48;;;;;;;2.35;1.65;;;;;;;9.37;100.00;99897.78;5048327;28;20637;-81
2022/09/26 04:11:21;;;;;;;4.32;2.00;;;;;;;9.36;100.00;99898.66;5017076;28;20041;-80
2022/09/26 04:13:48;;;;;;;2.67;2.47;;;;;;;9.33;100.00;99891.75;5023862;28;20083;-81
2022/09/26 04:16:19;;;;;;;3.08;1.70;;;;;;;9.35;100.00;99886.53;5041294;28;20044;-82
2022/09/26 04:18:50;;;;;;;2.97;2.50;;;;;;;9.36;100.00;99883.00;5046664;28;20124;-82
2022/09/26 04:21:17;;;;;;;2.60;2.00;;;;;;;9.38;100.00;99887.31;5029001;28;20408;-83
2022/09/26 04:23:46;;;;;;;8.40;2.88;;;;;;;9.38;100.00;99878.63;5043602;28;20040;-81
2022/09/26 04:26:18;;;;;;;4.20;2.22;;;;;;;9.38;100.00;99876.00;5057566;28;20041;-82
2022/09/26 04:28:53;;;;;;;2.78;2.50;;;;;;;9.38;100.00;99876.84;5033423;28;20053;-81
2022/09/26 04:31:26;;;;;;;7.32;3.17;;;;;;;9.40;100.00;99869.88;5019207;28;20052;-82
2022/09/26 04:33:59;;;;;;;4.82;3.05;;;;;;;9.40;100.00;99875.09;5057928;28;20103;-83
2022/09/26 04:36:27;;;;;;;4.28;2.63;;;;;;;9.42;100.00;99869.84;5055180;28;20081;-83
2022/09/26 04:38:54;;;;;;;6.13;2.85;;;;;;;9.43;100.00;99867.19;5034173;28;20064;-82
2022/09/26 04:41:23;;;;;;;4.88;2.35;;;;;;;9.44;100.00;99862.84;5055068;28;20041;-81
2022/09/26 04:43:50;;;;;;;6.97;3.42;;;;;;;9.45;100.00;99856.72;5034343;28;20059;-80
2022/09/26 04:46:21;;;;;;;2.90;2.70;;;;;;;9.45;100.00;99867.16;5047635;28;20045;-82
2022/09/26 04:48:58;;;;;;;5.38;2.90;;;;;;;9.44;100.00;99855.00;5048447;28;20044;-81
2022/09/26 04:51:28;;;;;;;5.15;2.72;;;;;;;9.47;100.00;99847.09;5044786;28;20068;-80
2022/09/26 04:54:00;;;;;;;6.53;3.33;;;;;;;9.49;100.00;99850.56;5046908;28;20037;-80
2022/09/26 04:56:33;;;;;;;6.38;3.08;;;;;;;9.50;100.00;99852.28;5047149;28;20094;-82
2022/09/26 04:59:01;;;;;;;;;;;;;;;9.51;100.00;99848.78;5045630;28;20456;-82
2022/09/26 05:01:28;;;;;;;5.57;2.65;;;;;;;9.51;100.00;99846.16;5047053;28;19928;-80
2022/09/26 05:03:58;;;;;;;5.35;3.00;;;;;;;9.51;100.00;99837.47;5062438;28;20467;-80
2022/09/26 05:06:25;;;;;;;2.83;2.55;;;;;;;9.49;100.00;99834.91;5029965;28;20061;-81
2022/09/26 05:08:55;;;;;;;10.35;3.20;;;;;;;9.48;100.00;99829.69;5047450;28;20132;-80
2022/09/26 05:11:22;;;;;;;3.17;2.60;;;;;;;9.46;100.00;99826.25;5031714;28;20095;-81
2022/09/26 05:14:21;;;;;;;5.60;2.88;;;;;;;9.40;100.00;99819.38;5048750;28;20045;-83
2022/09/26 05:16:48;;;;;;;4.47;2.95;;;;;;;9.34;100.00;99814.25;5064836;28;20059;-81
2022/09/26 05:19:17;;;;;;;8.75;3.72;;;;;;;9.29;100.00;99816.09;5035159;28;20052;-80
2022/09/26 05:21:44;;;;;;;5.55;3.03;;;;;;;9.20;100.00;99811.88;5022966;28;20049;-80
2022/09/26 05:26:55;;;;;;;;;;;;;;;9.04;100.00;99809.50;5059572;28;20097;-81
2022/09/26 05:29:26;;;;;;;6.25;3.00;;;;;;;9.03;100.00;99806.94;5039175;28;19921;-82
2022/09/26 05:31:53;;;;;;;5.25;2.80;;;;;;;9.03;100.00;99801.72;5047690;28;20101;-83
2022/09/26 05:34:31;;;;;;;2.80;2.53;;;;;;;8.99;100.00;99803.50;5050828;28;20073;-82
2022/09/26 05:36:58;;;;;;;5.88;3.10;;;;;;;8.97;100.00;99800.06;5048696;28;20041;-82
2022/09/26 05:42:10;;;;;;;4.03;2.90;;;;;;;9.02;100.00;99799.97;5050130;28;20041;-80
2022/09/26 05:44:37;;;;;;;10.15;3.65;;;;;;;9.08;100.00;99794.66;5056109;28;20080;-81
2022/09/26 05:47:04;;;;;;;6.95;3.28;;;;;;;9.14;100.00;99789.34;5029460;28;20119;-82
2022/09/26 05:49:32;;;;;;;6.22;2.53;;;;;;;9.22;100.00;99789.22;5031811;28;20049;-81
2022/09/26 05:51:59;;;;;;;6.18;2.72;;;;;;;9.27;100.00;99788.25;5046651;28;20621;-82
2022/09/26 05:54:26;;;;;;;5.85;2.78;;;;;;;9.35;100.00;99787.25;5031373;28;20102;-82
2022/09/26 05:56:52;;;;;;;4.25;2.10;;;;;;;9.44;100.00;99784.47;5047537;28;20037;-84
2022/09/26 05:59:19;;;;;;;7.47;2.50;;;;;;;9.53;100.00;99794.75;5054536;28;20139;-83
2022/09/26 06:01:46;;;;;;;6.20;4.13;;;;;;;9.59;99.05;99783.31;5068785;28;20028;-81
2022/09/26 06:04:13;;;;;;;4.13;2.35;;;;;;;9.70;98.86;99783.09;5044296;28;20136;-82
2022/09/26 06:06:40;;;;;;;5.70;2.67;;;;;;;9.84;98.03;99781.09;5034959;28;20108;-81
2022/09/26 06:09:07;;;;;;;2.53;2.30;;;;;;;9.98;96.35;99779.97;5064424;28;20060;-81
2022/09/26 06:11:36;;;;;;;4.13;2.10;;;;;;;10.11;95.62;99773.56;5048306;28;20037;-80
2022/09/26 06:14:09;;;;;;;3.47;2.72;;;;;;;10.21;94.44;99777.72;5034606;28;20168;-81
2022/09/26 06:16:35;;;;;;;8.82;2.45;;;;;;;10.34;94.12;99777.44;5050995;28;20037;-81
2022/09/26 06:19:02;;;;;;;5.90;2.40;;;;;;;10.36;93.38;99771.31;5048651;28;20159;-81
2022/09/26 06:21:29;;;;;;;5.93;2.42;;;;;;;10.39;93.07;99768.63;5046232;28;20037;-81
2022/09/26 06:23:57;;;;;;;2.90;2.05;;;;;;;10.40;92.64;99765.13;5057310;28;20104;-82
2022/09/26 06:26:27;;;;;;;7.05;2.63;;;;;;;10.41;92.31;99755.53;5037652;28;20068;-80
2022/09/26 06:28:58;;;;;;;4.47;2.72;;;;;;;10.44;92.24;99758.06;5052312;28;20041;-80
2022/09/26 06:31:26;;;;;;;4.47;3.05;;;;;;;10.47;91.92;99752.78;5036563;28;20057;-81
2022/09/26 06:33:54;;;;;;;3.80;2.28;;;;;;;10.51;90.79;99750.94;5039301;28;20044;-82
2022/09/26 06:36:23;;;;;;;5.40;2.35;;;;;;;10.54;91.33;99750.88;5031065;28;20045;-81
2022/09/26 06:38:56;;;;;;;2.15;1.88;;;;;;;10.62;90.94;99743.69;5051258;28;20049;-81
2022/09/26 06:41:25;;;;;;;1.95;1.75;;;;;;;10.70;90.19;99739.16;5049322;28;20056;-80
2022/09/26 06:43:52;;;;;;;4.43;2.35;;;;;;;10.80;89.99;99741.53;5032393;28;20096;-81
2022/09/26 06:46:20;;;;;;;2.47;1.90;;;;;;;10.90;89.32;99743.03;5042516;28;20040;-81
2022/09/26 06:48:49;;;;;;;2.97;2.38;;;;;;;10.99;88.03;99728.81;5050591;28;20097;-81
2022/09/26 06:51:19;;;;;;;1.85;1.75;;;;;;;11.07;87.76;99734.75;5052316;28;20119;-81
2022/09/26 06:53:47;;;;;;;2.58;1.63;;;;;;;11.15;86.90;99730.16;5049619;28;20041;-82
2022/09/26 06:56:14;;;;;;;3.33;1.48;;;;;;;11.25;86.48;99730.75;5053321;28;20045;-80
2022/09/26 06:58:40;;;;;;;2.70;1.83;;;;;;;11.34;85.61;99720.06;5016766;28;20048;-80
2022/09/26 07:01:09;;;;;;;3.70;1.80;;;;;;;11.64;84.99;99730.59;5063210;28;20037;-83
2022/09/26 07:03:36;;;;;;;3.13;2.67;;;;;;;11.85;82.14;99721.25;5038541;28;20044;-82
2022/09/26 07:06:10;;;;;;;4.55;1.92;;;;;;;12.18;82.16;99710.69;5035572;28;20136;-82
2022/09/26 07:08:37;;;;;;;2.85;2.65;;;;;;;12.66;78.91;99718.78;5048123;28;20079;-82
2022/09/26 07:11:04;;;;;;;8.75;2.45;;;;;;;13.21;77.35;99711.69;5034364;28;20499;-82
2022/09/26 07:13:35;;;;;;;2.95;1.75;;;;;;;13.99;74.62;99712.41;5045372;28;20474;-81
2022/09/26 07:16:02;;;;;;;4.65;2.28;;;;;;;14.62;67.77;99708.22;5049073;28;20049;-81
2022/09/26 07:18:29;;;;;;;2.03;1.67;;;;;;;15.15;68.12;99709.56;5052312;28;20721;-81
2022/09/26 07:20:59;;;;;;;1.90;1.58;;;;;;;15.24;65.63;99710.91;5043667;28;20046;-81
2022/09/26 07:23:25;;;;;;;3.63;1.90;;;;;;;15.27;65.02;99709.00;5013100;28;20037;-82
2022/09/26 07:25:52;;;;;;;3.03;2.83;;;;;;;15.27;64.23;99705.53;5051217;28;20072;-81
2022/09/26 07:28:19;;;;;;;3.00;2.00;;;;;;;15.02;66.22;99704.81;5051033;28;20045;-82
2022/09/26 07:30:46;;;;;;;2.10;1.90;;;;;;;14.96;66.01;99694.50;5048835;28;20044;-83
2022/09/26 07:33:15;;;;;;;2.42;1.67;;;;;;;15.42;64.12;99696.91;5039552;28;20423;-81
2022/09/26 07:35:45;;;;;;;2.70;1.98;;;;;;;15.92;62.60;99694.72;5051665;28;20041;-81
2022/09/26 07:38:11;;;;;;;3.45;2.55;;;;;;;15.62;62.14;99681.97;5047763;28;20056;-81
2022/09/26 07:40:39;;;;;;;4.00;1.70;;;;;;;15.14;63.91;99686.75;5046471;28;20668;-83
2022/09/26 07:43:11;;;;;;;4.03;2.28;;;;;;;15.05;64.17;99682.72;5047440;28;20728;-82
2022/09/26 07:51:10;;;;;;;3.33;2.03;;;;;;;15.86;60.41;99675.59;5039033;28;20037;-80
2022/09/26 07:53:40;;;;;;;6.18;2.25;;;;;;;15.03;62.43;99671.38;5049898;28;20084;-82
2022/09/26 07:56:15;;;;;;;2.85;2.42;;;;;;;14.50;64.99;99673.56;5030301;28;20388;-81
2022/09/26 07:58:45;;;;;;;2.85;2.47;;;;;;;14.14;66.71;99673.25;5052669;28;20377;-82
2022/09/26 08:01:18;;;;;;;3.28;2.22;;;;;;;13.86;67.67;99680.44;5048615;28;20049;-82
2022/09/26 08:03:47;;;;;;;4.47;2.58;;;;;;;13.64;68.63;99676.94;5053906;28;20056;-82
2022/09/26 08:06:19;;;;;;;4.35;2.38;;;;;;;13.47;69.57;99673.13;5051535;28;20045;-81
2022/09/26 08:08:54;;;;;;;5.32;2.35;;;;;;;13.46;69.78;99665.31;5034134;28;20049;-81
2022/09/26 08:11:24;;;;;;;4.70;2.20;;;;;;;13.40;70.25;99669.88;5031985;28;20065;-82
2022/09/26 08:13:51;;;;;;;3.28;2.35;;;;;;;13.47;70.11;99669.66;5056051;28;20040;-81
2022/09/26 08:16:22;;;;;;;6.30;2.63;;;;;;;13.72;69.46;99657.28;5054698;28;20055;-81
2022/09/26 08:18:53;;;;;;;3.63;1.90;;;;;;;13.96;68.85;99659.03;5054882;28;20037;-80
2022/09/26 08:21:22;;;;;;;4.15;1.90;;;;;;;14.07;68.47;99657.69;5025794;28;20128;-82
2022/09/26 08:23:48;;;;;;;2.58;1.98;;;;;;;14.11;67.84;99654.97;5048557;28;20451;-81
2022/09/26 08:26:20;;;;;;;3.03;2.10;;;;;;;14.02;68.14;99651.75;5052493;28;20041;-81
2022/09/26 08:28:48;;;;;;;4.65;2.33;;;;;;;13.97;68.38;99648.44;5048601;28;20064;-81
2022/09/26 08:31:16;;;;;;;4.13;3.22;;;;;;;13.93;68.70;99648.66;5048755;28;20045;-80
2022/09/26 08:33:43;;;;;;;3.63;2.13;;;;;;;14.04;68.31;99651.69;5033132;28;20111;-81
2022/09/26 08:36:15;;;;;;;4.47;2.70;;;;;;;13.88;67.92;99639.16;5033734;28;20064;-81
2022/09/26 08:38:42;;;;;;;2.83;1.77;;;;;;;13.89;68.65;99640.84;5037336;28;20119;-82
2022/09/26 08:41:39;;;;;;;3.95;2.08;;;;;;;14.36;67.00;99646.94;5055891;28;20056;-81
2022/09/26 08:44:25;;;;;;;2.85;1.58;;;;;;;14.58;66.24;99641.63;5056508;28;20070;-81
2022/09/26 08:47:05;;;;;;;3.28;2.20;;;;;;;14.70;65.72;99635.88;5053774;28;20125;-81
2022/09/26 08:50:11;;;;;;;2.05;1.95;;;;;;;14.93;64.76;99636.69;5053323;28;20051;-81
2022/09/26 08:53:32;;;;;;;4.40;1.60;;;;;;;15.57;62.73;99629.44;5028360;28;20393;-82
2022/09/26 08:56:01;;;;;;;5.57;1.70;;;;;;;15.85;61.52;99629.06;5054036;28;20098;-81
2022/09/26 08:58:43;;;;;;;4.22;1.90;;;;;;;15.70;59.79;99624.47;5029127;28;20041;-81
2022/09/26 09:01:26;;;;;;;6.30;1.80;;;;;;;14.93;62.86;99622.63;5041461;28;20073;-80
2022/09/26 09:04:02;;;;;;;1.17;1.07;;;;;;;14.90;63.60;99628.91;5072532;28;20072;-80
2022/09/26 09:06:29;;;;;;;3.60;1.48;;;;;;;14.98;62.52;99623.28;5052648;28;20049;-80
2022/09/26 09:12:35;;;;;;;1.90;1.30;;;;;;;14.81;60.93;99619.63;5054471;28;20068;-80
2022/09/26 09:15:32;;;;;;;1.42;1.05;;;;;;;14.46;62.36;99611.41;5077554;28;20056;-80
2022/09/26 09:18:34;;;;;;;5.47;1.17;;;;;;;14.55;61.51;99607.53;5044557;28;20057;-80
2022/09/26 09:21:51;;;;;;;2.60;1.00;;;;;;;14.55;62.09;99605.75;5051527;28;20056;-80
2022/09/26 09:24:41;;;;;;;5.15;1.48;;;;;;;14.69;61.64;99606.97;5040028;28;20060;-81
2022/09/26 09:27:40;;;;;;;2.38;1.25;;;;;;;14.67;61.13;99600.91;5059110;28;20122;-81
2022/09/26 09:30:20;;;;;;;1.95;1.50;;;;;;;14.83;60.64;99590.56;5045714;28;20483;-81
2022/09/26 09:32:58;;;;;;;1.92;1.45;;;;;;;14.80;60.42;99595.97;5027397;28;20052;-82
2022/09/26 09:35:39;;;;;;;3.55;2.45;;;;;;;14.74;60.87;99596.25;5043173;28;20128;-82
2022/09/26 09:38:15;;;;;;;3.50;1.48;;;;;;;14.70;61.80;99598.16;5048754;28;20131;-82
2022/09/26 09:41:03;;;;;;;2.75;1.13;;;;;;;14.76;61.49;99591.75;5053375;28;20041;-81
2022/09/26 09:44:07;;;;;;;3.60;1.60;;;;;;;14.61;62.43;99591.44;5033591;28;20408;-81
2022/09/26 09:46:43;;;;;;;3.78;1.55;;;;;;;14.60;63.03;99589.78;5044281;28;20056;-80
2022/09/26 09:49:10;;;;;;;1.08;0.95;;;;;;;14.62;63.21;99587.06;5047171;28;20060;-81
2022/09/26 09:52:01;;;;;;;2.75;1.20;;;;;;;14.63;63.20;99588.78;5048563;28;20037;-81
2022/09/26 09:54:58;;;;;;;6.45;1.48;;;;;;;14.51;63.51;99583.09;5047721;28;20045;-81
2022/09/26 09:58:00;;;;;;;1.48;1.25;;;;;;;14.59;62.43;99574.88;5044040;28;20106;-81
2022/09/26 10:00:28;;;;;;;2.95;1.08;;;;;;;14.75;61.76;99568.97;5045397;28;20044;-82
2022/09/26 10:03:54;;;;;;;1.23;1.02;;;;;;;14.80;61.80;99564.38;5062620;28;20052;-82
2022/09/26 10:06:24;;;;;;;5.82;1.63;;;;;;;14.92;60.12;99560.34;5049625;28;20118;-80
2022/09/26 10:08:51;;;;;;;2.25;0.60;;;;;;;14.77;59.91;99548.69;5045889;28;20038;-80
2022/09/26 10:11:40;;;;;;;4.35;1.25;;;;;;;14.81;58.74;99550.25;5029172;28;20052;-82
2022/09/26 10:14:14;;;;;;;2.58;0.75;;;;;;;14.84;58.13;99553.63;5027451;28;20484;-81
2022/09/26 10:17:09;;;;;;;6.10;1.50;;;;;;;14.85;58.84;99552.69;5041462;28;20052;-80
2022/09/26 10:19:40;;;;;;;4.82;0.73;;;;;;;15.08;58.07;99539.41;5045530;28;20041;-81
2022/09/26 10:22:22;;;;;;;2.60;1.10;;;;;;;15.20;57.65;99538.84;5045194;28;20128;-80
2022/09/26 10:24:50;;;;;;;2.92;0.98;;;;;;;15.12;57.76;99546.25;5031689;28;20044;-80
2022/09/26 10:27:40;;;;;;;3.65;0.75;;;;;;;15.11;56.70;99542.78;5045728;28;20073;-81
2022/09/26 10:30:32;;;;;;;2.50;0.63;;;;;;;14.78;57.64;99529.31;5046178;28;20055;-81
2022/09/26 10:33:02;;;;;;;3.38;1.02;;;;;;;14.59;58.79;99538.00;5054838;28;20052;-82
2022/09/26 10:35:47;;;;;;;4.00;1.13;;;;;;;14.34;60.17;99533.78;5059537;28;20045;-80
2022/09/26 10:38:26;;;;;;;3.53;0.70;;;;;;;14.07;61.18;99534.03;5045604;28;20590;-82
2022/09/26 10:40:59;;;;;;;2.53;1.00;;;;;;;13.95;62.23;99534.53;5046389;28;20053;-81
2022/09/26 10:43:56;;;;;;;3.93;1.20;;;;;;;13.78;63.19;99542.25;5034977;28;20079;-80
2022/09/26 10:46:23;;;;;;;3.70;0.98;;;;;;;13.62;64.23;99542.00;5045748;28;20819;-79
2022/09/26 10:48:55;;;;;;;4.90;1.23;;;;;;;13.55;65.22;99541.38;5026290;28;20055;-81
2022/09/26 10:51:36;;;;;;;0.80;0.75;;;;;;;13.50;65.86;99545.97;5005771;28;20546;-80
2022/09/26 10:54:17;;;;;;;5.63;1.17;;;;;;;13.37;66.45;99538.53;5029295;28;20071;-81
2022/09/26 10:56:49;;;;;;;2.75;1.13;;;;;;;13.28;67.39;99543.28;5049911;28;20041;-83
2022/09/26 10:59:18;;;;;;;3.83;1.33;;;;;;;13.32;67.24;99534.34;5059607;28;20116;-82
2022/09/26 11:01:55;;;;;;;3.13;1.20;;;;;;;13.42;67.40;99543.63;5055183;28;20053;-81
2022/09/26 11:07:34;;;;;;;6.43;1.08;;;;;;;13.81;66.98;99527.19;5014771;28;20052;-81
2022/09/26 11:10:07;;;;;;;1.17;1.10;;;;;;;14.41;65.23;99525.66;5009330;28;20187;-81
2022/09/26 11:12:38;;;;;;;1.80;1.10;;;;;;;15.43;62.24;99514.03;5023404;28;20054;-82
2022/09/26 11:15:10;;;;;;;5.63;1.13;;;;;;;16.20;59.03;99504.19;5044064;28;20049;-81
2022/09/26 11:17:52;;;;;;;2.35;1.45;;;;;;;16.26;58.90;99498.59;5027638;28;20100;-81
2022/09/26 11:20:37;;;;;;;1.00;1.00;;;;;;;16.43;58.43;99481.03;5016502;28;20042;-82
2022/09/26 11:23:31;;;;;;;1.40;1.10;;;;;;;16.36;58.13;99483.13;5021631;28;20070;-81
2022/09/26 11:26:52;;;;;;;;;;;;;;;16.42;58.44;99480.16;5033644;28;20045;-82
2022/09/26 11:29:47;;;;;;;4.20;1.10;;;;;;;16.31;59.00;99478.09;5031362;28;20299;-81
2022/09/26 11:32:23;;;;;;;3.72;1.17;;;;;;;16.03;59.40;99473.34;5008748;28;20045;-80
2022/09/26 11:35:01;;;;;;;8.55;2.03;;;;;;;15.80;60.37;99472.69;5028988;28;20100;-83
2022/09/26 11:38:02;;;;;;;4.85;1.25;;;;;;;15.46;61.15;99469.06;5030281;28;20057;-81
2022/09/26 11:40:58;;;;;;;1.95;1.05;;;;;;;15.08;63.08;99476.16;5028186;28;20053;-80
2022/09/26 11:44:22;;;;;;;3.22;1.38;;;;;;;14.62;63.81;99465.91;5030031;28;20068;-80
2022/09/26 11:47:19;;;;;;;3.97;1.10;;;;;;;14.28;66.90;99470.88;5032784;28;20044;-80
2022/09/26 11:50:06;;;;;;;1.33;0.90;;;;;;;14.07;67.33;99468.22;5013113;28;20057;-82
2022/09/26 11:52:56;;;;;;;3.92;1.10;;;;;;;13.95;67.75;99462.63;5028306;28;20091;-82
2022/09/26 11:56:04;;;;;;;5.30;1.40;;;;;;;13.82;69.76;99457.91;5032301;28;20099;-81
2022/09/26 11:58:58;;;;;;;0.80;0.80;;;;;;;13.71;70.56;99462.75;5028348;28;20041;-80
2022/09/26 12:01:54;;;;;;;3.13;1.03;;;;;;;13.57;71.08;99461.53;5028311;28;20107;-82
2022/09/26 12:05:10;;;;;;;3.63;1.60;;;;;;;13.50;71.07;99462.69;5024497;28;20444;-79
2022/09/26 12:07:49;;;;;;;2.92;1.00;;;;;;;13.34;72.70;99457.16;5025928;28;20045;-81
2022/09/26 12:10:38;;;;;;;2.10;0.98;;;;;;;13.21;73.85;99461.19;5023765;28;20068;-81
2022/09/26 12:13:39;;;;;;;3.30;1.55;;;;;;;13.08;75.27;99455.56;5044756;28;20045;-83
2022/09/26 12:16:34;;;;;;;1.95;1.40;;;;;;;13.08;75.27;99451.16;5025992;28;20046;-81
2022/09/26 12:19:45;;;;;;;2.20;1.35;;;;;;;13.05;76.70;99453.06;5029787;28;20037;-82
2022/09/26 12:22:42;;;;;;;3.90;1.50;;;;;;;13.06;76.37;99449.50;5015412;28;20049;-81
2022/09/26 12:25:57;;;;;;;1.42;1.35;;;;;;;13.02;77.95;99434.75;5030805;28;20076;-80
2022/09/26 12:29:04;;;;;;;5.63;2.80;;;;;;;13.00;77.16;99434.00;4991631;28;20385;-79
2022/09/26 12:31:59;;;;;;;5.53;1.67;;;;;;;12.99;77.11;99430.47;5043381;28;20380;-80
2022/09/26 12:34:42;;;;;;;2.50;1.88;;;;;;;13.00;77.22;99421.69;5026639;28;20053;-81
2022/09/26 12:37:15;;;;;;;2.90;1.55;;;;;;;12.99;77.69;99419.13;5022228;28;20053;-80
2022/09/26 12:40:08;;;;;;;1.80;1.70;;;;;;;13.04;78.23;99419.81;5031313;28;20128;-81